Terminal Aerodrome Forecast
Issued by NWS Lake Charles, LA

Home | Current Version | Previous Version | Text Only | Print | Product List | Glossary On
Versions: 1 2 3 4 5 6 7 8 9 10 11 12 13 14 15
943
FTUS44 KLCH 252330
TAFLFT
TAF
KLFT 252330Z 2600/2624 18010KT P6SM SCT070 SCT250
     FM260200 17006KT P6SM FEW070 FEW250
     FM260600 16004KT P6SM SCT025 SCT250
      TEMPO 2610/2614 SCT018 BKN028
     FM261500 18010KT P6SM FEW018 BKN035 BKN110
      TEMPO 2618/2622 P6SM -TSRA BKN025CB=

USA.gov is the U.S. government's official web portal to all federal, state and local government web resources and services.